Time;durP1;ratioP1;P1;durP2;ratioP2;P2;SDS_P1;SDS_P2;PMS_P1;PMS_P2;Temp;Humidity;BMP_temperature;BMP_pressure;BME280_temperature;BME280_humidity;BME280_pressure;Samples;Min_cycle;Max_cycle;Signal;HPM_P1;HPM_P2
2022/05/05 00:01:34;;;;;;;2.35;0.52;;;;;;;21.38;46.69;100910.88;5057443;28;20086;-44
2022/05/05 00:04:01;;;;;;;2.35;0.77;;;;;;;21.38;46.78;100910.06;5028984;28;20036;-44
2022/05/05 00:06:29;;;;;;;1.10;0.57;;;;;;;21.37;46.94;100909.25;5047258;28;20163;-45
2022/05/05 00:08:55;;;;;;;2.13;0.63;;;;;;;21.36;47.08;100906.81;5046705;28;20071;-48
2022/05/05 00:14:24;;;;;;;1.67;0.55;;;;;;;21.36;46.79;100899.66;5051982;28;20044;-44
2022/05/05 00:16:53;;;;;;;1.88;0.50;;;;;;;21.35;46.89;100905.16;5056044;28;20582;-49
2022/05/05 00:19:19;;;;;;;1.00;0.50;;;;;;;21.35;46.83;100897.22;5054085;28;20250;-47
2022/05/05 00:21:45;;;;;;;0.70;0.40;;;;;;;21.34;46.74;100909.66;5026574;28;20160;-45
2022/05/05 00:24:11;;;;;;;2.33;0.60;;;;;;;21.34;46.45;100901.69;5048968;28;20067;-48
2022/05/05 00:26:37;;;;;;;1.85;0.60;;;;;;;21.34;46.64;100901.69;5038285;28;20116;-45
2022/05/05 00:29:03;;;;;;;1.88;0.70;;;;;;;21.35;46.37;100895.38;5051624;28;20097;-43
2022/05/05 00:31:28;;;;;;;2.63;0.70;;;;;;;21.36;46.72;100898.84;5050147;28;20346;-45
2022/05/05 00:33:54;;;;;;;0.90;0.60;;;;;;;21.38;46.68;100891.50;5046841;28;20472;-45
2022/05/05 00:36:19;;;;;;;1.33;0.60;;;;;;;21.38;46.24;100900.28;5045056;28;20033;-43
2022/05/05 00:38:45;;;;;;;0.90;0.55;;;;;;;21.38;46.86;100894.97;5061635;28;20036;-43
2022/05/05 00:41:11;;;;;;;1.38;0.50;;;;;;;21.40;46.60;100892.94;5045937;28;20404;-45
2022/05/05 00:43:36;;;;;;;0.80;0.50;;;;;;;21.40;46.66;100895.59;5046060;28;20480;-46
2022/05/05 00:46:03;;;;;;;1.55;0.57;;;;;;;21.41;46.86;100886.63;5041140;28;20238;-44
2022/05/05 00:48:29;;;;;;;0.73;0.40;;;;;;;21.42;46.93;100888.25;5045523;28;20211;-46
2022/05/05 00:50:55;;;;;;;2.63;0.50;;;;;;;21.43;46.65;100897.00;5043305;28;20817;-45
2022/05/05 00:53:22;;;;;;;2.72;0.77;;;;;;;21.42;46.93;100888.25;5051488;28;20056;-47
2022/05/05 00:55:51;;;;;;;1.00;0.60;;;;;;;21.42;46.67;100888.25;5052697;28;20396;-43
2022/05/05 00:58:18;;;;;;;1.17;0.65;;;;;;;21.42;46.92;100892.72;5057704;28;20041;-44
2022/05/05 01:00:44;;;;;;;1.50;0.73;;;;;;;21.41;46.54;100891.09;5047452;28;20473;-45
2022/05/05 01:03:11;;;;;;;1.83;0.50;;;;;;;21.40;46.62;100892.94;5036358;28;20036;-43
2022/05/05 01:05:38;;;;;;;2.00;0.68;;;;;;;21.39;46.37;100895.78;5042804;28;20037;-45
2022/05/05 01:08:04;;;;;;;0.93;0.55;;;;;;;21.38;46.07;100892.31;5044407;28;20029;-46
2022/05/05 01:10:30;;;;;;;1.02;0.65;;;;;;;21.37;46.24;100882.75;5047754;28;20029;-46
2022/05/05 01:12:56;;;;;;;1.25;0.50;;;;;;;21.38;46.06;100883.56;5037684;28;20150;-45
2022/05/05 01:15:22;;;;;;;1.60;0.47;;;;;;;21.38;46.17;100886.22;5045137;28;20025;-45
2022/05/05 01:17:48;;;;;;;1.38;0.50;;;;;;;21.37;46.24;100879.28;5053201;28;20401;-45
2022/05/05 01:20:15;;;;;;;0.70;0.45;;;;;;;21.36;45.94;100885.59;5056734;28;20036;-45
2022/05/05 01:22:41;;;;;;;1.10;0.70;;;;;;;21.35;46.18;100882.13;5053593;28;20083;-43
2022/05/05 01:30:35;;;;;;;2.10;0.50;;;;;;;21.33;46.08;100886.00;5052764;28;20040;-46
2022/05/05 01:33:01;;;;;;;1.67;0.40;;;;;;;21.33;46.03;100884.16;5048155;28;20025;-47
2022/05/05 01:35:26;;;;;;;1.42;0.65;;;;;;;21.33;45.71;100873.56;5051719;28;20051;-44
2022/05/05 01:37:52;;;;;;;1.60;0.60;;;;;;;21.33;46.11;100868.28;5044660;28;20021;-46
2022/05/05 01:40:17;;;;;;;1.15;0.50;;;;;;;21.34;45.73;100877.84;5047664;28;20032;-46
2022/05/05 01:42:43;;;;;;;0.90;0.47;;;;;;;21.34;45.80;100875.19;5042665;28;20029;-49
2022/05/05 01:45:09;;;;;;;0.75;0.47;;;;;;;21.33;45.96;100876.22;5041867;28;20420;-46
2022/05/05 01:47:36;;;;;;;1.25;0.40;;;;;;;21.34;45.94;100869.09;5044254;28;20028;-48
2022/05/05 01:50:03;;;;;;;2.67;0.77;;;;;;;21.34;45.56;100869.91;5053276;28;20033;-44
2022/05/05 01:52:29;;;;;;;2.45;0.60;;;;;;;21.34;45.92;100871.72;5045153;28;20107;-46
2022/05/05 01:54:54;;;;;;;1.88;0.40;;;;;;;21.33;45.46;100868.28;5051414;28;20124;-44
2022/05/05 01:57:20;;;;;;;1.17;0.40;;;;;;;21.32;45.73;100871.94;5048678;28;20028;-47
2022/05/05 01:59:45;;;;;;;2.35;0.45;;;;;;;21.31;45.60;100865.00;5044560;28;20033;-46
2022/05/05 02:02:11;;;;;;;2.30;0.50;;;;;;;21.32;45.72;100871.94;5045501;28;20063;-46
2022/05/05 02:04:36;;;;;;;1.80;0.70;;;;;;;21.30;45.62;100863.38;5045323;28;20468;-43
2022/05/05 02:07:03;;;;;;;3.30;0.40;;;;;;;21.31;45.73;100872.13;5044195;28;20683;-44
2022/05/05 02:09:30;;;;;;;1.50;0.47;;;;;;;21.30;45.90;100868.69;5041683;28;20036;-45
2022/05/05 02:11:56;;;;;;;0.90;0.60;;;;;;;21.30;45.96;100868.69;5297505;22;20063;-45
2022/05/05 02:14:23;;;;;;;1.42;0.50;;;;;;;21.29;45.81;100871.53;5087412;28;20024;-45
2022/05/05 02:16:51;;;;;;;2.17;0.40;;;;;;;21.29;45.60;100866.22;5087371;28;20028;-44
2022/05/05 02:19:17;;;;;;;2.08;0.50;;;;;;;21.27;45.77;100863.78;5087620;28;20036;-44
2022/05/05 02:21:43;;;;;;;2.35;0.60;;;;;;;21.27;45.90;100860.34;5087155;28;20403;-46
2022/05/05 02:24:08;;;;;;;1.08;0.50;;;;;;;21.27;45.88;100863.78;5087875;28;20359;-45
2022/05/05 02:26:34;;;;;;;4.15;0.73;;;;;;;21.26;45.94;100864.84;5087574;28;20035;-44
2022/05/05 02:29:00;;;;;;;1.67;0.60;;;;;;;21.27;45.76;100874.38;5087637;28;20032;-44
2022/05/05 02:31:25;;;;;;;2.08;0.50;;;;;;;21.28;45.90;100865.41;5087181;28;20077;-45
2022/05/05 02:33:51;;;;;;;1.05;0.52;;;;;;;21.28;45.78;100865.41;5087149;28;20044;-45
2022/05/05 02:39:00;;;;;;;1.65;0.57;;;;;;;21.27;46.05;100858.47;5087110;28;20494;-46
2022/05/05 02:41:26;;;;;;;1.15;0.70;;;;;;;21.29;45.76;100855.63;5087371;28;20064;-49
2022/05/05 02:43:51;;;;;;;1.52;0.63;;;;;;;21.29;45.60;100861.75;5086967;28;20122;-46
2022/05/05 02:46:17;;;;;;;0.90;0.45;;;;;;;21.31;45.79;100858.88;5086864;28;20082;-46
2022/05/05 02:48:42;;;;;;;1.23;0.63;;;;;;;21.32;45.82;100864.00;5086873;28;20037;-45
2022/05/05 02:51:08;;;;;;;1.35;0.40;;;;;;;21.34;45.79;100864.59;5086911;28;20515;-45
2022/05/05 02:56:17;;;;;;;1.90;0.45;;;;;;;21.34;45.96;100861.13;5087209;28;20039;-46
2022/05/05 02:58:43;;;;;;;1.33;0.40;;;;;;;21.34;45.85;100858.47;5086606;28;20027;-43
2022/05/05 03:01:09;;;;;;;0.60;0.40;;;;;;;21.34;45.79;100853.19;5086608;28;20027;-43
2022/05/05 03:03:35;;;;;;;0.60;0.32;;;;;;;21.32;45.33;100856.03;5087054;28;20034;-43
2022/05/05 03:06:00;;;;;;;1.15;0.50;;;;;;;21.33;45.48;100851.56;5086607;28;20028;-45
2022/05/05 03:08:26;;;;;;;0.80;0.40;;;;;;;21.30;45.39;100842.19;5086796;28;20043;-47
2022/05/05 03:10:51;;;;;;;0.80;0.50;;;;;;;21.30;45.40;100842.19;5086757;28;20387;-44
2022/05/05 03:13:17;;;;;;;0.90;0.47;;;;;;;21.29;45.47;100843.19;5086336;28;20609;-47
2022/05/05 03:15:43;;;;;;;1.33;0.40;;;;;;;21.28;45.76;100833.63;5086165;28;20032;-45
2022/05/05 03:18:09;;;;;;;1.00;0.47;;;;;;;21.27;45.77;100826.69;5086363;28;20024;-45
2022/05/05 03:20:34;;;;;;;1.10;0.40;;;;;;;21.27;45.69;100837.28;5086473;28;20027;-46
2022/05/05 03:23:00;;;;;;;1.23;0.57;;;;;;;21.26;45.39;100841.00;5086599;28;20020;-45
2022/05/05 03:25:25;;;;;;;1.15;0.40;;;;;;;21.26;45.57;100838.34;5086675;28;20043;-46
2022/05/05 03:27:51;;;;;;;1.42;0.50;;;;;;;21.26;45.83;100845.47;5086453;28;20020;-46
2022/05/05 03:30:16;;;;;;;2.95;0.50;;;;;;;21.25;45.69;100844.66;5086487;28;20130;-47
2022/05/05 03:32:42;;;;;;;1.33;0.50;;;;;;;21.25;45.69;100844.66;5086546;28;20032;-47
2022/05/05 03:35:08;;;;;;;1.40;0.50;;;;;;;21.24;45.58;100836.91;5086263;28;20149;-47
2022/05/05 03:37:34;;;;;;;1.42;0.40;;;;;;;21.24;45.36;100836.91;5067845;28;20020;-45
2022/05/05 03:39:59;;;;;;;1.63;0.52;;;;;;;21.25;45.44;100841.19;5086237;28;20032;-45
2022/05/05 03:42:25;;;;;;;0.88;0.60;;;;;;;21.22;45.26;100839.75;5086302;28;20123;-44
2022/05/05 03:44:51;;;;;;;1.15;0.40;;;;;;;21.22;45.30;100839.75;5086171;28;20036;-45
2022/05/05 03:47:17;;;;;;;1.23;0.50;;;;;;;21.22;45.58;100844.25;5086206;28;20031;-45
2022/05/05 03:49:43;;;;;;;0.75;0.40;;;;;;;21.22;45.07;100844.25;5086112;28;20035;-44
2022/05/05 03:52:08;;;;;;;0.82;0.40;;;;;;;21.22;45.36;100844.25;5086043;28;20028;-47
2022/05/05 03:54:34;;;;;;;1.65;0.70;;;;;;;21.23;45.29;100845.88;5086150;28;20044;-48
2022/05/05 03:56:59;;;;;;;1.25;0.45;;;;;;;21.23;45.52;100846.69;5086563;28;20073;-45
2022/05/05 03:59:25;;;;;;;0.63;0.40;;;;;;;21.23;45.18;100845.88;5086058;28;20024;-43
2022/05/05 04:01:51;;;;;;;1.85;0.40;;;;;;;21.23;45.32;100854.66;5086192;28;20105;-45
2022/05/05 04:04:17;;;;;;;1.02;0.45;;;;;;;21.23;45.08;100852.00;5086181;28;20451;-45
2022/05/05 04:06:43;;;;;;;1.17;0.40;;;;;;;21.23;45.13;100856.47;5067929;28;20024;-47
2022/05/05 04:09:10;;;;;;;1.23;0.40;;;;;;;21.23;45.43;100862.59;5086120;28;20039;-43
2022/05/05 04:11:36;;;;;;;0.80;0.40;;;;;;;21.23;45.50;100845.88;5085776;28;20320;-47
2022/05/05 04:14:03;;;;;;;0.88;0.55;;;;;;;21.22;45.13;100849.53;5085903;28;20028;-47
2022/05/05 04:16:30;;;;;;;0.93;0.40;;;;;;;21.22;45.23;100854.84;5086081;28;20046;-47
2022/05/05 04:18:56;;;;;;;1.70;0.55;;;;;;;21.19;45.23;100853.38;5086128;28;20032;-46
2022/05/05 04:21:22;;;;;;;0.80;0.30;;;;;;;21.19;45.25;100856.03;5086234;28;20024;-46
2022/05/05 04:23:47;;;;;;;0.73;0.40;;;;;;;21.21;45.53;100864.63;5086138;28;20020;-45
2022/05/05 04:26:14;;;;;;;1.45;0.50;;;;;;;21.19;45.31;100859.50;5071412;28;20482;-58
2022/05/05 04:28:44;;;;;;;3.42;0.75;;;;;;;21.22;45.97;100860.97;5066466;28;20032;-48
2022/05/05 04:31:18;;;;;;;1.00;0.60;;;;;;;21.27;46.44;100866.44;5065000;28;20012;-53
2022/05/05 04:33:44;;;;;;;3.85;1.65;;;;;;;21.34;47.76;100869.09;5067053;28;20433;-53
2022/05/05 04:36:10;;;;;;;1.92;1.13;;;;;;;21.36;48.09;100867.84;5064355;28;20127;-45
2022/05/05 04:38:36;;;;;;;3.25;0.80;;;;;;;21.33;47.27;100870.91;5057108;28;20040;-59
2022/05/05 04:41:03;;;;;;;1.73;0.77;;;;;;;21.33;47.26;100873.56;5066288;28;20024;-53
2022/05/05 04:43:28;;;;;;;1.48;0.75;;;;;;;21.31;46.45;100880.91;5067593;28;20027;-45
2022/05/05 04:45:54;;;;;;;3.35;0.70;;;;;;;21.31;45.88;100880.09;5066045;28;20013;-47
2022/05/05 04:48:19;;;;;;;6.30;0.88;;;;;;;21.30;45.57;100889.06;5066783;28;20118;-51
2022/05/05 04:50:45;;;;;;;6.22;0.98;;;;;;;21.31;45.92;100885.41;5067281;28;20024;-49
2022/05/05 04:53:10;;;;;;;2.45;0.88;;;;;;;21.31;45.98;100886.22;5049244;28;20363;-47
2022/05/05 04:55:36;;;;;;;2.83;0.52;;;;;;;21.32;45.52;100895.78;5065640;28;20397;-57
2022/05/05 04:58:01;;;;;;;1.00;0.70;;;;;;;21.33;45.87;100897.41;5072066;22;20040;-53
2022/05/05 05:00:27;;;;;;;2.67;0.80;;;;;;;21.34;45.43;100898.25;5060315;28;20044;-50
2022/05/05 05:02:53;;;;;;;5.63;0.70;;;;;;;21.34;45.47;100900.88;5057417;28;20037;-50
2022/05/05 05:05:18;;;;;;;2.75;0.73;;;;;;;21.35;45.57;100919.22;5065922;28;20078;-52
2022/05/05 05:07:44;;;;;;;2.42;0.80;;;;;;;21.33;44.94;100904.56;5066397;28;20063;-53
2022/05/05 05:10:10;;;;;;;1.42;0.65;;;;;;;21.34;45.00;100908.84;5065865;28;20032;-50
2022/05/05 05:12:35;;;;;;;1.13;0.52;;;;;;;21.34;45.14;100917.59;5059598;28;20028;-53
2022/05/05 05:15:01;;;;;;;4.78;0.80;;;;;;;21.34;44.91;100922.09;5065842;28;20043;-52
2022/05/05 05:17:26;;;;;;;1.55;0.65;;;;;;;21.33;44.97;100917.81;5063061;28;20047;-51
2022/05/05 05:19:52;;;;;;;1.33;0.77;;;;;;;21.31;45.22;100923.31;5060312;28;20032;-53
2022/05/05 05:22:17;;;;;;;5.75;0.82;;;;;;;21.35;46.19;100929.84;5068565;28;20638;-50
2022/05/05 05:24:43;;;;;;;5.30;1.60;;;;;;;21.40;46.41;100930.03;5068330;28;20031;-55
2022/05/05 05:27:09;;;;;;;4.32;1.90;;;;;;;21.46;49.01;100923.94;5067501;28;20143;-50
2022/05/05 05:29:35;;;;;;;4.20;1.58;;;;;;;21.46;48.50;100929.22;5068349;28;20028;-56
2022/05/05 05:32:00;;;;;;;7.65;1.42;;;;;;;21.44;48.08;100928.63;5068176;28;20086;-53
2022/05/05 05:34:26;;;;;;;4.55;0.98;;;;;;;21.41;48.41;100936.16;5068492;28;20028;-53
2022/05/05 05:36:52;;;;;;;3.70;0.90;;;;;;;21.39;48.64;100933.72;5067695;28;20032;-55
2022/05/05 05:39:18;;;;;;;6.47;0.70;;;;;;;21.38;48.14;100940.03;5068094;28;20039;-48
2022/05/05 05:41:44;;;;;;;1.95;0.80;;;;;;;21.37;47.56;100942.88;5067132;28;20107;-53
2022/05/05 05:44:10;;;;;;;1.45;0.43;;;;;;;21.37;47.25;100954.31;5067505;28;20113;-47
2022/05/05 05:46:35;;;;;;;1.98;0.75;;;;;;;21.36;47.41;100962.47;5068097;28;20021;-50
2022/05/05 05:49:01;;;;;;;4.95;1.00;;;;;;;21.36;47.01;100963.28;5067847;28;20021;-48
2022/05/05 05:51:26;;;;;;;3.45;1.15;;;;;;;21.36;47.14;100965.09;5067967;28;20062;-50
2022/05/05 05:53:52;;;;;;;4.88;0.90;;;;;;;21.35;46.85;100959.00;5068047;28;20068;-48
2022/05/05 05:56:18;;;;;;;4.97;0.70;;;;;;;21.32;46.02;100970.00;5067615;28;20046;-52
2022/05/05 05:58:44;;;;;;;2.08;0.80;;;;;;;21.27;45.71;100975.09;5067491;28;20052;-54
2022/05/05 06:01:09;;;;;;;1.67;0.82;;;;;;;21.27;45.62;100972.44;5067767;28;20031;-50
2022/05/05 06:03:53;;;;;;;3.08;0.77;;;;;;;21.27;45.53;100972.44;5067704;28;20029;-50
2022/05/05 06:06:23;;;;;;;5.45;0.70;;;;;;;21.27;45.50;100975.09;5067797;28;20032;-51
2022/05/05 06:08:49;;;;;;;4.38;0.82;;;;;;;21.27;45.04;100974.31;5067355;28;20513;-55
2022/05/05 06:11:19;;;;;;;2.90;0.88;;;;;;;21.27;44.89;100977.72;5067423;28;20020;-49
2022/05/05 06:13:45;;;;;;;2.17;0.55;;;;;;;21.27;44.53;100972.44;5067495;28;20028;-52
2022/05/05 06:16:10;;;;;;;3.75;0.93;;;;;;;21.27;44.35;100974.31;5067328;28;20029;-54
2022/05/05 06:18:39;;;;;;;3.42;1.00;;;;;;;21.26;44.38;100968.19;5067388;28;20032;-49
2022/05/05 06:21:06;;;;;;;2.58;0.90;;;;;;;21.26;44.05;100962.88;5067057;28;20027;-52
2022/05/05 06:23:31;;;;;;;2.25;1.05;;;;;;;21.26;44.61;100959.41;5067223;28;20024;-58
2022/05/05 06:25:57;;;;;;;3.95;0.60;;;;;;;21.28;45.00;100970.59;5049118;28;20399;-49
2022/05/05 06:28:22;;;;;;;3.47;0.80;;;;;;;21.29;46.16;100973.06;5067453;28;20036;-51
2022/05/05 06:30:48;;;;;;;12.10;1.48;;;;;;;21.29;46.51;100970.41;5067038;28;20444;-52
2022/05/05 06:33:13;;;;;;;8.07;1.58;;;;;;;21.28;46.68;100968.75;5067224;28;20029;-55
2022/05/05 06:35:39;;;;;;;8.30;1.52;;;;;;;21.28;46.74;100974.06;5067565;28;20099;-53
2022/05/05 06:38:05;;;;;;;15.57;2.25;;;;;;;21.28;47.31;100976.72;5067031;28;20036;-52
2022/05/05 06:40:30;;;;;;;10.75;1.23;;;;;;;21.30;47.56;100981.81;5066805;28;20043;-55
2022/05/05 06:42:56;;;;;;;19.63;1.70;;;;;;;21.30;47.40;100968.56;5067129;28;20030;-55
2022/05/05 06:45:22;;;;;;;10.13;0.85;;;;;;;21.30;47.25;100979.97;5067117;28;20056;-51
2022/05/05 06:47:48;;;;;;;12.35;1.40;;;;;;;21.28;46.60;100982.00;5061168;28;20041;-52
2022/05/05 06:50:16;;;;;;;4.13;1.13;;;;;;;21.30;46.56;100981.81;5045978;28;20029;-50
2022/05/05 06:52:41;;;;;;;5.65;0.80;;;;;;;21.30;46.46;100998.53;5046488;28;20043;-55
2022/05/05 06:55:08;;;;;;;5.25;1.30;;;;;;;21.31;46.30;100992.22;5061887;28;20032;-55
2022/05/05 06:57:34;;;;;;;5.72;1.00;;;;;;;21.33;46.63;101000.78;5062934;28;20427;-55
2022/05/05 06:59:59;;;;;;;4.30;1.05;;;;;;;21.31;46.52;100994.88;5064279;28;20053;-53
2022/05/05 07:02:25;;;;;;;5.20;0.60;;;;;;;21.32;46.59;100996.50;5062892;28;20259;-55
2022/05/05 07:07:34;;;;;;;3.13;0.63;;;;;;;21.31;46.29;101004.66;5063122;28;20564;-53
2022/05/05 07:12:44;;;;;;;4.00;0.80;;;;;;;21.30;46.04;101006.47;5062637;28;20076;-57
2022/05/05 07:15:09;;;;;;;2.25;0.60;;;;;;;21.29;46.00;101004.84;5061536;28;20574;-56
2022/05/05 07:17:35;;;;;;;2.95;0.80;;;;;;;21.30;45.93;101005.66;5064670;28;20115;-56
2022/05/05 07:20:00;;;;;;;3.63;0.80;;;;;;;21.30;46.11;101001.19;5065745;28;20039;-54
2022/05/05 07:22:26;;;;;;;9.52;1.10;;;;;;;21.31;46.15;101007.31;5058759;28;20029;-53
2022/05/05 07:24:51;;;;;;;3.13;0.90;;;;;;;21.30;46.13;101001.19;5064245;28;20029;-55
2022/05/05 07:27:17;;;;;;;5.32;0.70;;;;;;;21.31;45.67;101002.81;5064852;28;20083;-54
2022/05/05 07:29:42;;;;;;;5.63;0.70;;;;;;;21.31;45.84;100999.34;5063769;28;20704;-55
2022/05/05 07:32:09;;;;;;;5.13;0.77;;;;;;;21.31;46.10;101000.16;5057029;28;20036;-54
2022/05/05 07:34:34;;;;;;;3.80;0.63;;;;;;;21.31;45.58;100997.50;5062877;28;20062;-54
2022/05/05 07:37:00;;;;;;;1.88;0.70;;;;;;;21.32;45.75;100993.84;5063062;28;20550;-54
2022/05/05 07:39:26;;;;;;;2.15;0.82;;;;;;;21.30;45.90;100995.88;5054490;28;20504;-55
2022/05/05 07:41:51;;;;;;;3.95;0.70;;;;;;;21.29;46.02;100999.56;5060660;28;20164;-53
2022/05/05 07:44:17;;;;;;;2.10;0.60;;;;;;;21.29;45.66;100996.09;5065840;28;20337;-54
2022/05/05 07:46:42;;;;;;;5.82;0.68;;;;;;;21.30;45.75;101000.38;5057256;28;20033;-55
2022/05/05 07:49:08;;;;;;;2.17;0.57;;;;;;;21.28;45.56;101005.88;5062353;28;20169;-52
2022/05/05 07:51:34;;;;;;;3.80;0.70;;;;;;;21.29;45.54;101004.03;5061757;28;20064;-54
2022/05/05 07:56:44;;;;;;;1.88;0.90;;;;;;;21.26;45.64;101005.28;5057420;28;20177;-55
2022/05/05 07:59:11;;;;;;;3.45;0.90;;;;;;;21.27;45.86;101006.88;5056907;28;20072;-55
2022/05/05 08:01:37;;;;;;;2.28;0.70;;;;;;;21.27;45.64;101012.19;5064347;28;20036;-53
2022/05/05 08:04:04;;;;;;;3.92;1.00;;;;;;;21.26;45.63;101010.59;5062636;28;20028;-54
2022/05/05 08:06:30;;;;;;;4.28;0.65;;;;;;;21.27;45.26;101027.31;5057604;28;20549;-56
2022/05/05 08:08:55;;;;;;;1.73;0.55;;;;;;;21.26;45.25;101023.03;5060156;28;20390;-55
2022/05/05 08:11:21;;;;;;;4.93;0.80;;;;;;;21.25;45.33;101016.91;5063009;28;20032;-54
2022/05/05 08:13:46;;;;;;;3.75;0.88;;;;;;;21.26;45.61;101005.28;5068519;28;20032;-54
2022/05/05 08:16:12;;;;;;;2.38;0.63;;;;;;;21.25;45.42;101008.94;5069891;28;20021;-55
2022/05/05 08:18:38;;;;;;;1.25;0.68;;;;;;;21.24;45.33;101006.50;5064842;28;20055;-55
2022/05/05 08:21:09;;;;;;;1.85;0.70;;;;;;;21.23;45.14;101003.03;5066572;28;20048;-52
2022/05/05 08:23:34;;;;;;;3.88;1.08;;;;;;;21.25;45.18;100994.88;5064927;28;20037;-52
2022/05/05 08:28:43;;;;;;;2.13;0.73;;;;;;;21.25;45.09;101002.84;5065329;28;20136;-55
2022/05/05 08:31:10;;;;;;;2.50;0.63;;;;;;;21.25;45.11;101014.25;5059972;28;20458;-52
2022/05/05 08:33:38;;;;;;;2.05;0.98;;;;;;;21.26;45.31;101005.28;5063285;28;20029;-54
2022/05/05 08:36:05;;;;;;;1.92;0.93;;;;;;;21.26;44.89;101013.22;5053455;28;20085;-52
2022/05/05 08:38:31;;;;;;;1.75;0.90;;;;;;;21.27;45.07;101016.69;5057647;28;20116;-53
2022/05/05 08:40:57;;;;;;;1.50;0.80;;;;;;;21.28;44.68;101023.59;5066984;28;20112;-52
2022/05/05 08:43:23;;;;;;;1.83;1.00;;;;;;;21.29;44.75;101030.53;5067615;28;20618;-53
2022/05/05 08:45:50;;;;;;;2.95;0.75;;;;;;;21.30;44.95;101037.47;5064651;28;20097;-55
2022/05/05 08:48:16;;;;;;;1.02;0.50;;;;;;;21.30;44.60;101030.34;5069237;28;20337;-55
2022/05/05 08:50:44;;;;;;;1.60;0.60;;;;;;;21.30;44.60;101022.38;5068370;28;20032;-59
2022/05/05 08:53:17;;;;;;;1.73;0.70;;;;;;;21.30;44.60;101019.75;5065961;28;20029;-52
2022/05/05 08:55:46;;;;;;;3.53;0.73;;;;;;;21.29;44.94;101014.63;5064560;28;20440;-53
2022/05/05 08:58:12;;;;;;;4.70;1.13;;;;;;;21.30;44.93;101018.91;5056468;28;20053;-53
2022/05/05 09:00:38;;;;;;;1.50;0.82;;;;;;;21.30;44.82;101017.09;5034768;28;20119;-55
2022/05/05 09:03:08;;;;;;;1.60;0.90;;;;;;;21.30;44.98;101019.75;5058701;28;20211;-54
2022/05/05 09:05:43;;;;;;;4.97;0.73;;;;;;;21.29;44.84;101019.94;5061915;28;20039;-56
2022/05/05 09:08:27;;;;;;;1.47;0.67;;;;;;;21.26;44.93;101021.19;5065395;28;20029;-51
2022/05/05 09:10:57;;;;;;;5.82;0.90;;;;;;;21.27;45.06;101020.13;5062907;28;20047;-55
2022/05/05 09:13:40;;;;;;;2.47;0.70;;;;;;;21.26;44.92;101018.53;5053670;28;20230;-51
2022/05/05 09:16:06;;;;;;;1.52;0.90;;;;;;;21.28;45.23;101026.25;5065273;28;20108;-56
2022/05/05 09:18:33;;;;;;;6.50;1.05;;;;;;;21.27;45.19;101024.66;5069167;28;20131;-52
2022/05/05 09:21:01;;;;;;;2.03;1.00;;;;;;;21.28;45.32;101028.91;5069188;28;20036;-54
2022/05/05 09:23:34;;;;;;;1.98;1.08;;;;;;;21.28;45.33;101023.59;5069080;28;20479;-50
2022/05/05 09:26:01;;;;;;;2.58;0.73;;;;;;;21.27;45.33;101022.78;5069037;28;20040;-56
2022/05/05 09:28:31;;;;;;;1.50;0.55;;;;;;;21.27;45.25;101027.31;5069031;28;20039;-51
2022/05/05 09:31:04;;;;;;;1.30;0.55;;;;;;;21.27;45.11;101022.78;5068031;28;20119;-52
2022/05/05 09:33:35;;;;;;;2.03;0.70;;;;;;;21.26;45.08;101015.06;5068939;28;20032;-55
2022/05/05 09:36:09;;;;;;;3.00;0.70;;;;;;;21.26;45.15;101015.88;5068544;28;20119;-56
2022/05/05 09:38:51;;;;;;;1.33;0.60;;;;;;;21.25;44.87;101008.94;5072090;28;20077;-52
2022/05/05 09:41:28;;;;;;;0.77;0.50;;;;;;;21.27;45.09;101004.22;5068572;28;20040;-53
2022/05/05 09:43:56;;;;;;;1.00;0.50;;;;;;;21.28;44.93;101002.41;5068684;28;20064;-51
2022/05/05 09:46:25;;;;;;;1.63;0.60;;;;;;;21.27;44.99;101004.22;5068845;28;20039;-53
2022/05/05 09:49:08;;;;;;;0.60;0.45;;;;;;;21.29;45.24;101007.50;5065449;28;20039;-52
2022/05/05 09:51:39;;;;;;;1.15;0.60;;;;;;;21.27;45.20;100995.50;5061265;28;20209;-54
2022/05/05 09:59:42;;;;;;;2.63;1.15;;;;;;;21.27;44.55;100998.16;5067515;28;20134;-54
2022/05/05 10:02:27;;;;;;;3.15;1.50;;;;;;;21.26;44.21;100997.34;5063879;28;20033;-55
2022/05/05 10:04:57;;;;;;;3.70;1.67;;;;;;;21.26;44.13;100999.16;5060021;28;20035;-56
2022/05/05 10:07:23;;;;;;;4.93;1.80;;;;;;;21.26;44.36;100997.34;5063038;28;20391;-59
2022/05/05 10:09:49;;;;;;;2.60;1.67;;;;;;;21.27;44.43;100983.03;5059513;28;20037;-55
2022/05/05 10:12:17;;;;;;;1.50;1.40;;;;;;;21.27;44.32;100984.91;5054029;28;20610;-55
2022/05/05 10:14:43;;;;;;;3.13;1.90;;;;;;;21.26;44.10;100989.38;5061579;28;20868;-59
2022/05/05 10:17:09;;;;;;;2.53;2.10;;;;;;;21.26;44.10;100989.38;5066046;28;20032;-54
2022/05/05 10:19:36;;;;;;;2.35;1.63;;;;;;;21.26;44.25;101001.81;5058473;28;20043;-54
2022/05/05 10:22:13;;;;;;;4.07;1.90;;;;;;;21.24;44.05;101003.84;5066620;28;20028;-57
2022/05/05 10:24:50;;;;;;;3.08;1.73;;;;;;;21.25;44.38;100997.53;5058180;28;20494;-58
2022/05/05 10:27:16;;;;;;;2.45;1.83;;;;;;;21.25;44.17;101008.13;5061880;28;20101;-58
2022/05/05 10:29:44;;;;;;;4.18;1.83;;;;;;;21.25;44.03;101006.31;5063095;28;20075;-55
2022/05/05 10:32:13;;;;;;;5.25;2.10;;;;;;;21.25;44.22;101008.13;5067350;28;20087;-56
2022/05/05 10:34:45;;;;;;;2.40;2.17;;;;;;;21.25;44.37;101008.94;5053139;28;20124;-60
2022/05/05 10:37:13;;;;;;;1.70;1.50;;;;;;;21.26;44.13;101009.75;5052133;28;20028;-56
2022/05/05 10:39:45;;;;;;;2.38;1.25;;;;;;;21.26;44.34;101001.81;5022326;28;20138;-53
2022/05/05 10:42:15;;;;;;;1.55;1.45;;;;;;;21.28;44.22;101013.81;5054456;28;20036;-56
2022/05/05 10:45:10;;;;;;;4.13;1.70;;;;;;;21.27;43.97;101006.88;5065854;28;20089;-60
2022/05/05 10:48:06;;;;;;;3.45;1.65;;;;;;;21.27;44.15;101014.84;5059246;28;20198;-55
2022/05/05 10:50:49;;;;;;;3.50;1.75;;;;;;;21.28;43.82;101015.66;5058666;28;20527;-59
2022/05/05 10:53:32;;;;;;;1.90;1.70;;;;;;;21.29;43.99;101014.63;5063461;28;20426;-53
2022/05/05 10:56:00;;;;;;;1.88;1.40;;;;;;;21.31;43.94;101004.66;5055023;28;20082;-62
2022/05/05 10:59:03;;;;;;;3.13;1.20;;;;;;;21.30;43.40;101006.47;5054729;28;20048;-50
2022/05/05 11:01:31;;;;;;;2.60;1.85;;;;;;;21.32;43.77;101004.44;5062093;28;20523;-57
2022/05/05 11:04:13;;;;;;;4.80;1.83;;;;;;;21.36;44.89;101000.38;5066895;28;20051;-56
2022/05/05 11:06:40;;;;;;;3.50;1.48;;;;;;;21.54;45.72;100999.78;5066059;28;20123;-51
2022/05/05 11:09:05;;;;;;;5.93;2.30;;;;;;;21.66;46.03;100994.69;5066264;28;20115;-52
2022/05/05 11:11:41;;;;;;;4.22;2.10;;;;;;;21.76;46.07;100989.78;5066842;28;20203;-52
2022/05/05 11:22:45;;;;;;;3.17;1.95;;;;;;;21.88;51.92;100998.75;5055911;28;20638;-57
2022/05/05 11:25:11;;;;;;;2.42;1.83;;;;;;;21.88;53.64;101003.25;5050890;28;20126;-54
2022/05/05 11:27:36;;;;;;;4.05;1.80;;;;;;;21.88;55.46;100988.13;5060397;28;20028;-54
2022/05/05 11:30:03;;;;;;;4.57;1.35;;;;;;;21.86;53.59;100990.19;5058435;28;20021;-55
2022/05/05 11:32:33;;;;;;;2.63;1.48;;;;;;;21.83;51.76;100993.25;5063295;28;20521;-56
2022/05/05 11:35:00;;;;;;;12.10;1.35;;;;;;;21.82;50.30;101000.38;5061269;28;20161;-52
2022/05/05 11:37:26;;;;;;;2.15;0.85;;;;;;;21.81;49.72;100993.44;5052533;28;20395;-55
2022/05/05 11:39:52;;;;;;;6.07;1.33;;;;;;;21.83;49.95;100995.91;5053286;28;20032;-53
2022/05/05 11:42:18;;;;;;;107.93;25.33;;;;;;;21.99;52.61;100994.66;5070006;28;20047;-52
2022/05/05 11:44:45;;;;;;;678.58;204.50;;;;;;;22.22;55.90;100995.03;5067930;28;20470;-52
2022/05/05 11:47:17;;;;;;;952.03;337.77;;;;;;;22.41;56.98;100993.38;5070995;28;20513;-60
2022/05/05 11:49:48;;;;;;;831.63;388.70;;;;;;;22.45;55.08;100995.41;5070990;28;20093;-59
2022/05/05 11:52:20;;;;;;;519.47;180.38;;;;;;;22.39;52.46;100982.94;5062744;28;20032;-52
2022/05/05 11:54:48;;;;;;;256.15;76.75;;;;;;;22.32;49.86;100991.97;5055602;28;20550;-54
2022/05/05 11:57:32;;;;;;;168.23;49.80;;;;;;;22.20;47.73;100997.13;5060877;28;20566;-54
2022/05/05 12:02:42;;;;;;;127.13;36.67;;;;;;;22.11;47.47;100990.41;5060121;28;20059;-52
2022/05/05 12:05:08;;;;;;;122.95;35.05;;;;;;;22.08;47.16;100993.47;5057703;28;20029;-55
2022/05/05 12:07:34;;;;;;;107.72;32.78;;;;;;;22.04;47.34;100997.53;5066685;28;20116;-58